Kofu, Japan
Current Conditions -  °F | °C
As of 12:58 PM on Saturday 25 Oct 2014 (Local Time) from RJTY Reporting Station
Clear Clear  
Wind Chill: 71°   Ceiling: Unl
Heat Index: 71°   Visibility: 10mi
Dew Point: 57°   Wind: 8mph
Humidity: 61%   Direction: 150°SSE
Pressure: 30.22"   Gusts: NA
Location:  35.66°N, 138.57°E
Report Text: RJTY 250358Z AUTO 15007KT 10SM CLR 22/14 A3022 RMK AO2 SLP235 T02150137
Loading
Personal Weather Stations






























Interactive Weather Map
Tropical Storm Tracking
New forecast layout! Learn more

10-Day Weather Forecast

Advertisements
Track Severe Weather on mobile